Time;durP1;ratioP1;P1;durP2;ratioP2;P2;SDS_P1;SDS_P2;PMS_P1;PMS_P2;Temp;Humidity;BMP_temperature;BMP_pressure;BME280_temperature;BME280_humidity;BME280_pressure;Samples;Min_cycle;Max_cycle;Signal;HPM_P1;HPM_P2
2023/02/10 00:00:41;;;;;;;12.30;8.43;;;;;;;;;;4985850;28;20038;-64
2023/02/10 00:03:07;;;;;;;10.70;7.57;;;;;;;;;;4969596;28;20284;-67
2023/02/10 00:05:32;;;;;;;11.33;8.33;;;;;;;;;;4988108;28;20125;-69
2023/02/10 00:07:57;;;;;;;11.27;8.33;;;;;;;;;;4986501;28;20888;-73
2023/02/10 00:10:22;;;;;;;11.33;7.63;;;;;;;;;;4979259;28;20310;-72
2023/02/10 00:12:48;;;;;;;11.70;8.20;;;;;;;;;;4986522;28;20448;-70
2023/02/10 00:15:13;;;;;;;10.17;7.80;;;;;;;;;;4986320;28;20400;-73
2023/02/10 00:17:38;;;;;;;10.40;7.80;;;;;;;;;;4994483;28;20289;-64
2023/02/10 00:20:03;;;;;;;11.63;8.63;;;;;;;;;;5006857;28;20352;-65
2023/02/10 00:22:29;;;;;;;11.13;8.00;;;;;;;;;;4990765;28;20327;-56
2023/02/10 00:24:54;;;;;;;11.93;8.40;;;;;;;;;;5001639;28;20046;-65
2023/02/10 00:27:23;;;;;;;11.52;8.50;;;;;;;;;;4992664;28;20281;-64
2023/02/10 00:29:49;;;;;;;11.65;8.82;;;;;;;;;;4986930;28;20094;-65
2023/02/10 00:32:14;;;;;;;10.55;8.13;;;;;;;;;;4969805;28;20581;-65
2023/02/10 00:34:39;;;;;;;11.70;8.70;;;;;;;;;;4968115;28;20419;-64
2023/02/10 00:37:04;;;;;;;11.80;8.63;;;;;;;;;;4987520;28;20278;-69
2023/02/10 00:39:30;;;;;;;12.33;8.80;;;;;;;;;;4986998;28;20273;-64
2023/02/10 00:41:55;;;;;;;11.60;8.30;;;;;;;;;;4969448;28;20285;-68
2023/02/10 00:44:20;;;;;;;11.70;8.87;;;;;;;;;;4969356;28;20042;-71
2023/02/10 00:46:45;;;;;;;11.10;8.45;;;;;;;;;;4980056;28;20294;-72
2023/02/10 00:49:11;;;;;;;13.37;9.17;;;;;;;;;;4955433;28;20460;-60
2023/02/10 00:51:36;;;;;;;12.02;8.88;;;;;;;;;;4961066;28;20518;-70
2023/02/10 00:54:02;;;;;;;13.87;9.40;;;;;;;;;;4990387;28;20058;-71
2023/02/10 00:56:27;;;;;;;11.95;8.77;;;;;;;;;;4990526;28;20344;-69
2023/02/10 00:58:52;;;;;;;11.48;8.80;;;;;;;;;;4990108;28;20031;-71
2023/02/10 01:01:18;;;;;;;11.63;8.13;;;;;;;;;;4985213;28;20038;-69
2023/02/10 01:03:43;;;;;;;12.68;8.93;;;;;;;;;;4972296;28;20077;-71
2023/02/10 01:06:09;;;;;;;11.90;9.00;;;;;;;;;;4973870;28;20484;-77
2023/02/10 01:08:34;;;;;;;12.60;9.07;;;;;;;;;;4989711;28;20316;-65
2023/02/10 01:11:06;;;;;;;11.37;8.33;;;;;;;;;;4990649;28;20440;-70
2023/02/10 01:13:33;;;;;;;13.75;9.18;;;;;;;;;;4990683;28;20289;-68
2023/02/10 01:15:58;;;;;;;12.75;8.95;;;;;;;;;;4984888;28;20118;-70
2023/02/10 01:18:24;;;;;;;12.05;8.60;;;;;;;;;;4985711;28;20066;-72
2023/02/10 01:20:49;;;;;;;13.20;9.70;;;;;;;;;;4972403;28;20049;-72
2023/02/10 01:23:14;;;;;;;13.63;9.07;;;;;;;;;;4989901;28;20034;-68
2023/02/10 01:25:39;;;;;;;13.45;9.07;;;;;;;;;;4990225;28;20278;-68
2023/02/10 01:28:05;;;;;;;12.60;9.10;;;;;;;;;;4989516;28;20569;-72
2023/02/10 01:30:30;;;;;;;12.52;9.20;;;;;;;;;;4988059;28;20748;-66
2023/02/10 01:32:55;;;;;;;12.85;9.38;;;;;;;;;;4989111;28;20033;-70
2023/02/10 01:35:21;;;;;;;11.50;8.98;;;;;;;;;;4990475;28;20054;-72
2023/02/10 01:37:46;;;;;;;13.27;9.30;;;;;;;;;;4972434;28;20045;-67
2023/02/10 01:40:11;;;;;;;12.07;9.20;;;;;;;;;;4989689;28;20057;-71
2023/02/10 01:42:38;;;;;;;11.87;8.93;;;;;;;;;;4969777;28;20349;-73
2023/02/10 01:45:19;;;;;;;13.32;9.10;;;;;;;;;;4961782;28;20794;-72
2023/02/10 01:47:45;;;;;;;13.45;9.10;;;;;;;;;;4965593;28;20055;-71
2023/02/10 01:50:10;;;;;;;13.38;9.50;;;;;;;;;;4979690;28;20023;-67
2023/02/10 01:52:36;;;;;;;12.77;9.15;;;;;;;;;;4985751;28;20080;-67
2023/02/10 01:55:05;;;;;;;11.80;8.63;;;;;;;;;;4985942;28;20047;-71
2023/02/10 01:57:30;;;;;;;13.17;9.47;;;;;;;;;;4968909;28;20058;-73
2023/02/10 01:59:56;;;;;;;12.57;9.07;;;;;;;;;;4969285;28;20039;-67
2023/02/10 02:02:21;;;;;;;13.85;9.65;;;;;;;;;;4969913;28;20286;-72
2023/02/10 02:04:48;;;;;;;14.13;9.33;;;;;;;;;;4971421;28;20046;-72
2023/02/10 02:07:13;;;;;;;11.88;8.98;;;;;;;;;;5002445;28;20298;-70
2023/02/10 02:09:39;;;;;;;13.32;9.55;;;;;;;;;;4969509;28;20043;-73
2023/02/10 02:12:10;;;;;;;11.47;8.87;;;;;;;;;;4965481;28;20050;-71
2023/02/10 02:14:49;;;;;;;12.23;8.93;;;;;;;;;;4970689;28;20345;-64
2023/02/10 02:17:23;;;;;;;13.38;9.18;;;;;;;;;;4985238;28;20054;-69
2023/02/10 02:20:40;;;;;;;12.73;8.88;;;;;;;;;;4968006;28;20042;-57
2023/02/10 02:23:04;;;;;;;12.00;8.95;;;;;;;;;;4969063;28;20049;-61
2023/02/10 02:25:48;;;;;;;13.18;9.10;;;;;;;;;;4981077;28;20038;-62
2023/02/10 02:28:13;;;;;;;11.82;9.05;;;;;;;;;;4958149;28;20043;-67
2023/02/10 02:30:50;;;;;;;13.20;8.93;;;;;;;;;;4969543;28;20392;-68
2023/02/10 02:33:16;;;;;;;12.70;9.13;;;;;;;;;;4969268;28;20186;-57
2023/02/10 02:35:43;;;;;;;12.97;8.83;;;;;;;;;;4969304;28;20569;-64
2023/02/10 02:38:09;;;;;;;12.40;8.63;;;;;;;;;;4964688;28;20295;-63
2023/02/10 02:40:34;;;;;;;11.33;8.37;;;;;;;;;;4967244;28;20041;-63
2023/02/10 02:42:59;;;;;;;11.83;8.60;;;;;;;;;;4969977;28;20293;-64
2023/02/10 02:45:32;;;;;;;14.23;9.33;;;;;;;;;;4984026;28;20038;-66
2023/02/10 02:48:09;;;;;;;13.45;9.30;;;;;;;;;;4975692;28;20434;-67
2023/02/10 02:50:35;;;;;;;12.98;9.48;;;;;;;;;;4988303;28;20042;-74
2023/02/10 02:53:10;;;;;;;12.75;9.18;;;;;;;;;;4966274;28;20069;-68
2023/02/10 02:55:39;;;;;;;13.38;9.50;;;;;;;;;;4984705;28;20062;-68
2023/02/10 02:58:08;;;;;;;12.35;9.00;;;;;;;;;;4988655;28;20041;-69
2023/02/10 03:00:33;;;;;;;13.70;9.53;;;;;;;;;;4988890;28;20593;-71
2023/02/10 03:02:59;;;;;;;14.20;9.77;;;;;;;;;;4992529;28;20034;-60
2023/02/10 03:05:28;;;;;;;11.70;8.80;;;;;;;;;;5006416;28;20273;-57
2023/02/10 03:07:54;;;;;;;13.15;8.85;;;;;;;;;;4982482;28;20038;-59
2023/02/10 03:10:21;;;;;;;13.50;9.77;;;;;;;;;;4973452;28;20120;-66
2023/02/10 03:12:46;;;;;;;11.95;8.68;;;;;;;;;;4988573;28;20156;-71
2023/02/10 03:15:11;;;;;;;12.50;9.03;;;;;;;;;;4988651;28;20637;-75
2023/02/10 03:17:36;;;;;;;11.77;8.30;;;;;;;;;;4971078;28;20666;-75
2023/02/10 03:20:02;;;;;;;13.63;8.80;;;;;;;;;;4964844;28;20312;-73
2023/02/10 03:22:27;;;;;;;12.10;8.38;;;;;;;;;;4972049;28;20304;-64
2023/02/10 03:24:52;;;;;;;13.13;8.93;;;;;;;;;;4987715;28;20058;-71
2023/02/10 03:27:17;;;;;;;12.27;8.83;;;;;;;;;;4987100;28;20269;-68
2023/02/10 03:29:43;;;;;;;11.10;8.20;;;;;;;;;;4987296;28;20293;-70
2023/02/10 03:32:08;;;;;;;11.75;8.95;;;;;;;;;;4970961;28;20046;-70
2023/02/10 03:34:33;;;;;;;12.07;8.65;;;;;;;;;;4977019;28;20542;-72
2023/02/10 03:36:58;;;;;;;11.82;8.65;;;;;;;;;;4989615;28;20026;-66
2023/02/10 03:39:24;;;;;;;11.98;8.60;;;;;;;;;;4987256;28;20030;-71
2023/02/10 03:41:49;;;;;;;12.80;9.17;;;;;;;;;;4989061;28;20041;-67
2023/02/10 03:44:14;;;;;;;12.10;9.07;;;;;;;;;;4989262;28;20297;-71
2023/02/10 03:46:40;;;;;;;12.80;8.87;;;;;;;;;;4979058;28;20298;-74
2023/02/10 03:49:05;;;;;;;12.50;9.13;;;;;;;;;;4985324;28;20893;-69
2023/02/10 03:51:30;;;;;;;13.85;9.45;;;;;;;;;;4988672;28;20074;-72
2023/02/10 03:53:55;;;;;;;13.73;9.50;;;;;;;;;;4988782;28;20573;-66
2023/02/10 03:56:21;;;;;;;12.73;9.07;;;;;;;;;;4971054;28;20797;-68
2023/02/10 03:58:46;;;;;;;12.82;8.57;;;;;;;;;;4970588;28;20285;-65
2023/02/10 04:01:12;;;;;;;13.50;9.40;;;;;;;;;;4984846;28;20165;-64
2023/02/10 04:03:37;;;;;;;13.07;8.70;;;;;;;;;;4989468;28;20313;-60
2023/02/10 04:06:02;;;;;;;12.43;9.07;;;;;;;;;;4988122;28;20113;-66
2023/02/10 04:08:27;;;;;;;11.65;8.48;;;;;;;;;;4970110;28;20448;-68
2023/02/10 04:10:53;;;;;;;11.23;8.77;;;;;;;;;;4988014;28;20034;-71
2023/02/10 04:13:19;;;;;;;12.27;8.70;;;;;;;;;;4987728;28;20340;-70
2023/02/10 04:15:44;;;;;;;13.10;8.63;;;;;;;;;;4986775;28;20365;-70
2023/02/10 04:18:10;;;;;;;12.75;8.73;;;;;;;;;;4974330;28;20104;-67
2023/02/10 04:20:35;;;;;;;11.27;8.67;;;;;;;;;;4984805;28;20394;-66
2023/02/10 04:23:00;;;;;;;12.47;8.43;;;;;;;;;;4970406;28;20269;-71
2023/02/10 04:25:25;;;;;;;11.93;8.97;;;;;;;;;;4969693;28;20030;-68
2023/02/10 04:27:51;;;;;;;12.00;7.87;;;;;;;;;;4970029;28;20284;-69
2023/02/10 04:30:16;;;;;;;11.73;8.20;;;;;;;;;;4990811;28;20739;-65
2023/02/10 04:32:41;;;;;;;11.25;8.18;;;;;;;;;;4991721;28;20344;-67
2023/02/10 04:35:06;;;;;;;10.57;7.70;;;;;;;;;;4993478;28;20023;-68
2023/02/10 04:37:32;;;;;;;11.07;8.48;;;;;;;;;;4993249;28;20340;-74
2023/02/10 04:39:57;;;;;;;12.27;8.60;;;;;;;;;;4975523;28;20076;-61
2023/02/10 04:42:29;;;;;;;12.53;8.23;;;;;;;;;;4975593;28;20357;-69
2023/02/10 04:44:55;;;;;;;10.43;7.35;;;;;;;;;;4990719;28;20301;-73
2023/02/10 04:47:20;;;;;;;12.77;8.77;;;;;;;;;;4973948;28;20090;-72
2023/02/10 04:49:45;;;;;;;10.93;8.37;;;;;;;;;;4990929;28;20462;-71
2023/02/10 04:52:11;;;;;;;11.17;8.53;;;;;;;;;;4990647;28;20442;-70
2023/02/10 04:54:36;;;;;;;10.27;8.03;;;;;;;;;;4991249;28;20273;-74
2023/02/10 04:57:01;;;;;;;11.43;8.10;;;;;;;;;;4975343;28;20270;-74
2023/02/10 04:59:26;;;;;;;11.03;8.37;;;;;;;;;;4991611;28;20026;-71
2023/02/10 05:01:52;;;;;;;12.38;8.85;;;;;;;;;;4974134;28;20324;-75
2023/02/10 05:04:17;;;;;;;11.83;8.60;;;;;;;;;;4992172;28;20407;-60
2023/02/10 05:06:42;;;;;;;10.87;8.90;;;;;;;;;;4991559;28;20289;-67
2023/02/10 05:09:07;;;;;;;10.37;7.07;;;;;;;;;;4983531;28;20273;-66
2023/02/10 05:11:33;;;;;;;10.32;7.20;;;;;;;;;;4989899;28;20298;-64
2023/02/10 05:13:58;;;;;;;10.20;7.40;;;;;;;;;;4990102;28;20007;-59
2023/02/10 05:16:23;;;;;;;9.68;6.93;;;;;;;;;;4998220;28;20822;-61
2023/02/10 05:18:49;;;;;;;10.30;6.90;;;;;;;;;;4993979;28;20022;-66
2023/02/10 05:21:14;;;;;;;10.30;7.75;;;;;;;;;;4971432;28;20833;-64
2023/02/10 05:23:39;;;;;;;10.10;7.17;;;;;;;;;;4992847;28;20031;-66
2023/02/10 05:26:05;;;;;;;10.70;7.53;;;;;;;;;;4992344;28;20584;-67
2023/02/10 05:28:30;;;;;;;11.17;7.17;;;;;;;;;;4970776;28;20034;-60
2023/02/10 05:30:55;;;;;;;10.13;6.97;;;;;;;;;;4988359;28;20046;-62
2023/02/10 05:33:20;;;;;;;10.27;7.47;;;;;;;;;;4989488;28;20265;-61
2023/02/10 05:35:46;;;;;;;8.80;6.73;;;;;;;;;;4989000;28;20309;-62
2023/02/10 05:38:11;;;;;;;8.87;7.10;;;;;;;;;;4970778;28;20983;-62
2023/02/10 05:40:36;;;;;;;10.82;7.20;;;;;;;;;;4989722;28;20053;-66
2023/02/10 05:43:02;;;;;;;10.60;7.60;;;;;;;;;;4990418;28;20053;-62
2023/02/10 05:45:27;;;;;;;10.82;7.43;;;;;;;;;;4983521;28;20265;-63
2023/02/10 05:47:52;;;;;;;9.50;7.07;;;;;;;;;;4990708;28;20124;-61
2023/02/10 05:50:17;;;;;;;9.30;6.63;;;;;;;;;;4976479;28;20365;-61
2023/02/10 05:52:43;;;;;;;9.23;6.95;;;;;;;;;;4996960;28;20038;-60
2023/02/10 05:55:08;;;;;;;11.17;7.67;;;;;;;;;;4997525;28;20034;-64
2023/02/10 05:57:33;;;;;;;9.55;7.32;;;;;;;;;;4989485;28;20794;-63
2023/02/10 05:59:58;;;;;;;8.73;6.70;;;;;;;;;;4989579;28;20038;-70
2023/02/10 06:02:24;;;;;;;9.85;7.13;;;;;;;;;;4989163;28;20786;-68
2023/02/10 06:04:49;;;;;;;8.83;6.90;;;;;;;;;;4990333;28;20066;-66
2023/02/10 06:07:15;;;;;;;9.30;7.23;;;;;;;;;;4972316;28;20274;-66
2023/02/10 06:09:41;;;;;;;9.27;6.80;;;;;;;;;;4972124;28;20070;-63
2023/02/10 06:12:06;;;;;;;12.82;9.57;;;;;;;;;;4988130;28;20164;-63
2023/02/10 06:14:31;;;;;;;9.93;7.38;;;;;;;;;;4986218;28;21673;-61
2023/02/10 06:16:57;;;;;;;10.40;7.77;;;;;;;;;;4993671;28;20121;-58
2023/02/10 06:19:22;;;;;;;10.25;7.40;;;;;;;;;;4987905;28;20282;-63
2023/02/10 06:21:47;;;;;;;11.33;7.13;;;;;;;;;;4971733;28;20062;-64
2023/02/10 06:24:12;;;;;;;9.00;6.50;;;;;;;;;;4989461;28;20392;-67
2023/02/10 06:26:38;;;;;;;9.50;6.43;;;;;;;;;;4972465;28;20668;-69
2023/02/10 06:29:03;;;;;;;9.48;6.57;;;;;;;;;;4988142;28;20361;-67
2023/02/10 06:31:28;;;;;;;10.38;6.97;;;;;;;;;;4989931;28;20034;-68
2023/02/10 06:33:53;;;;;;;10.43;7.20;;;;;;;;;;4989174;28;20538;-69
2023/02/10 06:36:19;;;;;;;10.45;6.82;;;;;;;;;;4965477;28;20042;-69
2023/02/10 06:38:44;;;;;;;11.33;7.00;;;;;;;;;;4980789;28;20042;-69
2023/02/10 06:41:09;;;;;;;10.52;7.07;;;;;;;;;;4989305;28;20272;-61
2023/02/10 06:43:34;;;;;;;10.37;7.30;;;;;;;;;;4989756;28;20037;-64
2023/02/10 06:46:00;;;;;;;10.00;6.73;;;;;;;;;;4969667;28;21074;-65
2023/02/10 06:48:26;;;;;;;10.10;7.68;;;;;;;;;;4981737;28;20286;-66
2023/02/10 06:50:52;;;;;;;10.25;6.45;;;;;;;;;;4978237;28;20053;-65
2023/02/10 06:53:17;;;;;;;9.65;6.30;;;;;;;;;;4954256;28;20038;-61
2023/02/10 06:55:42;;;;;;;9.50;6.80;;;;;;;;;;4968028;28;20085;-63
2023/02/10 06:58:08;;;;;;;8.50;6.40;;;;;;;;;;4978895;28;20047;-64
2023/02/10 07:00:33;;;;;;;10.57;7.40;;;;;;;;;;4980724;28;20096;-63
2023/02/10 07:02:58;;;;;;;9.57;6.83;;;;;;;;;;4986576;28;20027;-63
2023/02/10 07:05:24;;;;;;;9.90;6.63;;;;;;;;;;4987102;28;20040;-65
2023/02/10 07:07:50;;;;;;;9.88;7.00;;;;;;;;;;4986676;28;20138;-61
2023/02/10 07:10:16;;;;;;;8.48;6.07;;;;;;;;;;4985977;28;20670;-65
2023/02/10 07:12:41;;;;;;;10.45;6.85;;;;;;;;;;4981656;28;20051;-61
2023/02/10 07:15:06;;;;;;;9.30;6.90;;;;;;;;;;4961144;28;20449;-63
2023/02/10 07:17:32;;;;;;;20.38;12.15;;;;;;;;;;4987233;28;20277;-65
2023/02/10 07:19:57;;;;;;;9.23;7.10;;;;;;;;;;4986874;28;20062;-64
2023/02/10 07:22:22;;;;;;;14.85;10.50;;;;;;;;;;4983363;28;20061;-66
2023/02/10 07:24:48;;;;;;;10.97;7.50;;;;;;;;;;4984802;28;20124;-65
2023/02/10 07:27:13;;;;;;;9.95;7.15;;;;;;;;;;4985031;28;20787;-61
2023/02/10 07:29:38;;;;;;;11.87;7.57;;;;;;;;;;4969268;28;20030;-67
2023/02/10 07:32:04;;;;;;;9.60;7.40;;;;;;;;;;4987481;28;20688;-66
2023/02/10 07:34:30;;;;;;;9.40;6.53;;;;;;;;;;4969538;28;20308;-61
2023/02/10 07:36:56;;;;;;;11.38;7.68;;;;;;;;;;4953066;28;20121;-63
2023/02/10 07:39:21;;;;;;;10.38;7.25;;;;;;;;;;4985007;28;20052;-61
2023/02/10 07:41:46;;;;;;;9.90;6.53;;;;;;;;;;4987204;28;20034;-67
2023/02/10 07:44:12;;;;;;;11.43;7.40;;;;;;;;;;4986647;28;20038;-65
2023/02/10 07:46:37;;;;;;;9.43;6.77;;;;;;;;;;4977851;28;20286;-61
2023/02/10 07:49:02;;;;;;;7.97;6.15;;;;;;;;;;4968935;28;20128;-64
2023/02/10 07:51:27;;;;;;;9.07;6.53;;;;;;;;;;4963335;28;20047;-62
2023/02/10 07:53:53;;;;;;;9.90;7.00;;;;;;;;;;4965049;28;20288;-66
2023/02/10 07:56:18;;;;;;;9.53;7.03;;;;;;;;;;4933666;28;20041;-68
2023/02/10 07:58:43;;;;;;;9.90;7.20;;;;;;;;;;4966429;28;20286;-61
2023/02/10 08:01:09;;;;;;;8.53;6.67;;;;;;;;;;4949982;28;20286;-62
2023/02/10 08:03:34;;;;;;;9.82;6.95;;;;;;;;;;4942295;28;20833;-68
2023/02/10 08:05:59;;;;;;;9.33;7.23;;;;;;;;;;4943133;28;20039;-60
2023/02/10 08:08:24;;;;;;;9.83;7.00;;;;;;;;;;4958653;28;20705;-62
2023/02/10 08:10:49;;;;;;;9.27;6.90;;;;;;;;;;4957127;28;20309;-65
2023/02/10 08:13:15;;;;;;;10.15;7.03;;;;;;;;;;4944074;28;20274;-68
2023/02/10 08:15:40;;;;;;;8.20;6.32;;;;;;;;;;4959413;28;20126;-61
2023/02/10 08:18:05;;;;;;;9.47;6.87;;;;;;;;;;4967393;28;20035;-62
2023/02/10 08:20:30;;;;;;;10.47;7.07;;;;;;;;;;4969735;28;20109;-65
2023/02/10 08:22:56;;;;;;;9.60;6.60;;;;;;;;;;4950407;28;20031;-66
2023/02/10 08:25:21;;;;;;;10.23;6.90;;;;;;;;;;4967031;28;20031;-61
2023/02/10 08:27:46;;;;;;;10.40;7.40;;;;;;;;;;4933040;28;20058;-63
2023/02/10 08:30:12;;;;;;;9.13;7.00;;;;;;;;;;4950875;28;20336;-66
2023/02/10 08:32:37;;;;;;;11.03;7.70;;;;;;;;;;4954764;28;20307;-63
2023/02/10 08:35:02;;;;;;;8.90;7.00;;;;;;;;;;4950256;28;20845;-60
2023/02/10 08:37:28;;;;;;;9.07;6.82;;;;;;;;;;4965571;28;20070;-66
2023/02/10 08:39:53;;;;;;;9.27;6.95;;;;;;;;;;4950011;28;20921;-66
2023/02/10 08:42:18;;;;;;;9.13;6.83;;;;;;;;;;4960550;28;20336;-62
2023/02/10 08:44:43;;;;;;;9.73;7.10;;;;;;;;;;4956865;28;20805;-63
2023/02/10 08:47:11;;;;;;;8.13;6.67;;;;;;;;;;4964781;28;20089;-65
2023/02/10 08:49:36;;;;;;;8.65;6.63;;;;;;;;;;4964989;28;20286;-65
2023/02/10 08:52:01;;;;;;;9.85;7.32;;;;;;;;;;4964360;28;20061;-64
2023/02/10 08:54:26;;;;;;;10.10;7.27;;;;;;;;;;4981872;28;20431;-68
2023/02/10 08:56:55;;;;;;;9.38;7.18;;;;;;;;;;4965279;28;20401;-67
2023/02/10 08:59:20;;;;;;;10.40;7.90;;;;;;;;;;4981121;28;20574;-60
2023/02/10 09:01:45;;;;;;;10.50;7.73;;;;;;;;;;4966078;28;20050;-65
2023/02/10 09:04:10;;;;;;;10.50;7.40;;;;;;;;;;4945688;28;20078;-66
2023/02/10 09:06:38;;;;;;;9.37;7.03;;;;;;;;;;4965808;28;20035;-66
2023/02/10 09:09:07;;;;;;;9.65;7.40;;;;;;;;;;4982257;28;20285;-65
2023/02/10 09:11:32;;;;;;;9.55;7.53;;;;;;;;;;4967474;28;20138;-65
2023/02/10 09:13:57;;;;;;;10.13;7.70;;;;;;;;;;4968732;28;20133;-65
2023/02/10 09:16:22;;;;;;;9.17;7.50;;;;;;;;;;4967558;28;20043;-62
2023/02/10 09:18:48;;;;;;;9.50;7.43;;;;;;;;;;4977168;28;20295;-64
2023/02/10 09:21:13;;;;;;;8.95;7.00;;;;;;;;;;4948860;28;20349;-64
2023/02/10 09:23:38;;;;;;;9.82;7.40;;;;;;;;;;4965713;28;20500;-64
2023/02/10 09:26:03;;;;;;;9.13;7.27;;;;;;;;;;4969537;28;20085;-65
2023/02/10 09:28:29;;;;;;;9.65;7.05;;;;;;;;;;4967685;28;20070;-68
2023/02/10 09:30:54;;;;;;;8.43;6.53;;;;;;;;;;4965025;28;20516;-67
2023/02/10 09:33:19;;;;;;;10.23;7.43;;;;;;;;;;4952368;28;20341;-63
2023/02/10 09:35:44;;;;;;;9.20;7.33;;;;;;;;;;4953103;28;20290;-66
2023/02/10 09:38:10;;;;;;;10.50;7.20;;;;;;;;;;4996146;28;20049;-63
2023/02/10 09:40:56;;;;;;;10.88;7.47;;;;;;;;;;4985527;28;20674;-62
2023/02/10 09:43:25;;;;;;;9.70;7.00;;;;;;;;;;4970405;28;20062;-65
2023/02/10 09:45:52;;;;;;;10.55;7.72;;;;;;;;;;4971154;28;20109;-61
2023/02/10 09:48:36;;;;;;;9.38;7.10;;;;;;;;;;4975615;28;20038;-67
2023/02/10 09:51:01;;;;;;;9.73;7.65;;;;;;;;;;4951739;28;20151;-64
2023/02/10 09:53:27;;;;;;;9.37;7.00;;;;;;;;;;4970328;28;20054;-65
2023/02/10 09:55:57;;;;;;;10.05;7.43;;;;;;;;;;4970885;28;20122;-67
2023/02/10 09:58:34;;;;;;;8.52;7.13;;;;;;;;;;4953440;28;20046;-65
2023/02/10 10:01:04;;;;;;;9.15;7.03;;;;;;;;;;4970844;28;20023;-64
2023/02/10 10:03:34;;;;;;;10.27;7.37;;;;;;;;;;4952550;28;20042;-66
2023/02/10 10:06:05;;;;;;;9.20;7.18;;;;;;;;;;4970274;28;20589;-62
2023/02/10 10:08:43;;;;;;;9.38;7.15;;;;;;;;;;4950070;28;20351;-65
2023/02/10 10:11:23;;;;;;;8.75;6.32;;;;;;;;;;4974890;28;20101;-67
2023/02/10 10:13:49;;;;;;;9.50;7.40;;;;;;;;;;4941208;28;20034;-63
2023/02/10 10:16:41;;;;;;;9.37;7.07;;;;;;;;;;4951061;28;20039;-66
2023/02/10 10:19:25;;;;;;;10.10;6.97;;;;;;;;;;4968603;28;20380;-64
2023/02/10 10:21:53;;;;;;;10.57;7.22;;;;;;;;;;4958706;28;20059;-64
2023/02/10 10:24:25;;;;;;;8.65;7.18;;;;;;;;;;4970371;28;20039;-66
2023/02/10 10:26:54;;;;;;;8.77;6.90;;;;;;;;;;4952206;28;20133;-66
2023/02/10 10:29:32;;;;;;;8.68;6.25;;;;;;;;;;4953055;28;20038;-63
2023/02/10 10:32:06;;;;;;;10.10;7.30;;;;;;;;;;4969474;28;20605;-64
2023/02/10 10:34:31;;;;;;;8.55;6.95;;;;;;;;;;4953370;28;20046;-64
2023/02/10 10:36:56;;;;;;;10.47;7.37;;;;;;;;;;4952367;28;20086;-64
2023/02/10 10:39:28;;;;;;;8.90;7.43;;;;;;;;;;4983103;28;20274;-67
2023/02/10 10:41:53;;;;;;;11.20;7.95;;;;;;;;;;4968482;28;20409;-62
2023/02/10 10:44:19;;;;;;;8.40;6.88;;;;;;;;;;4952059;28;20038;-65
2023/02/10 10:46:58;;;;;;;9.57;7.47;;;;;;;;;;4978681;28;20464;-66
2023/02/10 10:49:24;;;;;;;9.63;7.07;;;;;;;;;;4987119;28;20065;-65
2023/02/10 10:51:49;;;;;;;9.25;7.30;;;;;;;;;;4988525;28;20038;-67
2023/02/10 10:54:15;;;;;;;10.05;6.82;;;;;;;;;;4988368;28;20065;-66
2023/02/10 10:56:50;;;;;;;9.40;7.40;;;;;;;;;;4988486;28;20454;-67
2023/02/10 10:59:17;;;;;;;8.93;6.82;;;;;;;;;;4988503;28;20391;-61
2023/02/10 11:01:42;;;;;;;8.90;6.88;;;;;;;;;;4987000;28;20042;-67
2023/02/10 11:04:12;;;;;;;8.68;7.07;;;;;;;;;;4970439;28;20027;-60
2023/02/10 11:06:37;;;;;;;10.00;7.28;;;;;;;;;;4988287;28;20036;-65
2023/02/10 11:09:03;;;;;;;9.65;7.45;;;;;;;;;;4986953;28;20093;-63
2023/02/10 11:11:32;;;;;;;9.63;7.25;;;;;;;;;;4987175;28;20088;-63
2023/02/10 11:13:57;;;;;;;9.70;6.97;;;;;;;;;;4987007;28;20030;-65
2023/02/10 11:16:23;;;;;;;9.60;7.30;;;;;;;;;;4981516;28;20034;-63
2023/02/10 11:18:58;;;;;;;9.57;6.90;;;;;;;;;;4989520;28;20442;-62
2023/02/10 11:21:40;;;;;;;9.68;7.20;;;;;;;;;;4990818;28;20293;-64
2023/02/10 11:24:15;;;;;;;9.07;6.72;;;;;;;;;;4986669;28;20038;-65
2023/02/10 11:26:41;;;;;;;9.52;7.28;;;;;;;;;;4974568;28;20531;-66
2023/02/10 11:29:12;;;;;;;8.43;6.57;;;;;;;;;;4970547;28;20046;-64
2023/02/10 11:31:37;;;;;;;8.88;7.10;;;;;;;;;;4970696;28;20356;-61
2023/02/10 11:34:14;;;;;;;9.07;7.10;;;;;;;;;;4987997;28;20034;-62
2023/02/10 11:36:40;;;;;;;9.90;7.15;;;;;;;;;;4985468;28;20262;-66
2023/02/10 11:39:06;;;;;;;9.50;7.38;;;;;;;;;;4986745;28;20129;-66
2023/02/10 11:41:31;;;;;;;8.80;7.07;;;;;;;;;;4970373;28;20054;-64
2023/02/10 11:43:56;;;;;;;8.03;6.50;;;;;;;;;;4970428;28;20068;-65
2023/02/10 11:46:25;;;;;;;9.30;7.15;;;;;;;;;;4988363;28;20286;-65
2023/02/10 11:48:57;;;;;;;7.78;6.68;;;;;;;;;;4986727;28;20034;-63
2023/02/10 11:51:22;;;;;;;9.73;7.63;;;;;;;;;;4985990;28;20042;-64
2023/02/10 11:53:47;;;;;;;9.10;6.78;;;;;;;;;;4970308;28;21289;-66
2023/02/10 11:56:14;;;;;;;10.15;7.10;;;;;;;;;;4987028;28;20026;-65
2023/02/10 11:59:01;;;;;;;9.00;6.95;;;;;;;;;;4970311;28;20041;-66
2023/02/10 12:01:35;;;;;;;9.30;6.85;;;;;;;;;;4985804;28;20093;-62
2023/02/10 12:04:13;;;;;;;10.00;7.25;;;;;;;;;;4986081;28;20511;-66
2023/02/10 12:06:45;;;;;;;9.07;7.22;;;;;;;;;;4987977;28;20300;-66
2023/02/10 12:09:13;;;;;;;8.63;7.05;;;;;;;;;;4977845;28;20028;-62
2023/02/10 12:11:43;;;;;;;8.55;6.72;;;;;;;;;;4984201;28;20034;-62
2023/02/10 12:14:11;;;;;;;9.23;7.20;;;;;;;;;;4987897;28;20039;-67
2023/02/10 12:16:48;;;;;;;8.75;6.68;;;;;;;;;;4987435;28;20511;-67
2023/02/10 12:19:36;;;;;;;7.88;6.15;;;;;;;;;;4986374;28;20144;-66
2023/02/10 12:22:04;;;;;;;9.30;6.65;;;;;;;;;;4970138;28;20042;-66
2023/02/10 12:24:33;;;;;;;9.13;7.05;;;;;;;;;;4988071;28;20037;-63
2023/02/10 12:27:19;;;;;;;8.90;7.00;;;;;;;;;;4971502;28;20023;-66
2023/02/10 12:29:51;;;;;;;7.70;6.30;;;;;;;;;;4970699;28;20023;-66
2023/02/10 12:32:25;;;;;;;9.75;7.05;;;;;;;;;;4987463;28;20438;-65
2023/02/10 12:35:20;;;;;;;9.60;6.80;;;;;;;;;;4988146;28;20118;-66
2023/02/10 12:37:55;;;;;;;8.73;6.72;;;;;;;;;;4961169;28;20116;-63
2023/02/10 12:40:39;;;;;;;10.00;7.05;;;;;;;;;;4967553;28;20423;-64
2023/02/10 12:43:07;;;;;;;10.95;7.07;;;;;;;;;;4986365;28;20571;-66
2023/02/10 12:45:34;;;;;;;9.13;7.15;;;;;;;;;;4972873;28;20026;-62
2023/02/10 12:48:06;;;;;;;8.70;6.88;;;;;;;;;;4986874;28;20438;-63
2023/02/10 12:50:49;;;;;;;9.50;6.80;;;;;;;;;;4987344;28;20353;-61
2023/02/10 12:53:44;;;;;;;8.50;6.97;;;;;;;;;;4985745;28;20026;-63
2023/02/10 12:56:18;;;;;;;8.07;6.60;;;;;;;;;;4974826;28;20039;-62
2023/02/10 12:58:48;;;;;;;9.35;6.78;;;;;;;;;;4981142;28;20100;-61
2023/02/10 13:01:13;;;;;;;9.48;7.22;;;;;;;;;;4972616;28;20575;-64
2023/02/10 13:03:38;;;;;;;10.53;6.93;;;;;;;;;;4991861;28;20058;-64
2023/02/10 13:06:04;;;;;;;9.30;6.85;;;;;;;;;;4989642;28;20269;-67
2023/02/10 13:08:30;;;;;;;9.60;7.20;;;;;;;;;;4987907;28;20129;-64
2023/02/10 13:10:58;;;;;;;8.43;6.63;;;;;;;;;;4990103;28;20792;-65
2023/02/10 13:13:23;;;;;;;8.98;6.75;;;;;;;;;;4968259;28;20023;-66
2023/02/10 13:16:07;;;;;;;8.37;6.70;;;;;;;;;;4989401;28;20018;-64
2023/02/10 13:18:34;;;;;;;7.95;6.82;;;;;;;;;;4973182;28;20335;-66
2023/02/10 13:21:04;;;;;;;8.75;6.90;;;;;;;;;;4985700;28;20019;-63
2023/02/10 13:23:38;;;;;;;9.30;6.95;;;;;;;;;;4968109;28;20037;-62
2023/02/10 13:26:22;;;;;;;8.75;6.93;;;;;;;;;;4969547;28;20046;-64
2023/02/10 13:28:59;;;;;;;7.90;6.47;;;;;;;;;;4978288;28;20022;-65
2023/02/10 13:31:48;;;;;;;8.57;7.00;;;;;;;;;;4987618;28;20132;-64
2023/02/10 13:34:19;;;;;;;7.97;6.65;;;;;;;;;;4960769;28;20035;-66
2023/02/10 13:36:47;;;;;;;8.52;6.88;;;;;;;;;;4952733;28;20017;-61
2023/02/10 13:39:15;;;;;;;10.18;7.00;;;;;;;;;;4966419;28;20034;-60
2023/02/10 13:41:41;;;;;;;8.80;6.68;;;;;;;;;;4980494;28;20023;-64
2023/02/10 13:44:14;;;;;;;9.13;6.95;;;;;;;;;;4984929;28;20442;-65
2023/02/10 13:46:40;;;;;;;8.27;6.53;;;;;;;;;;4964692;28;20053;-63
2023/02/10 13:49:05;;;;;;;8.68;6.72;;;;;;;;;;4970155;28;20113;-65
2023/02/10 13:51:31;;;;;;;8.30;6.70;;;;;;;;;;4967830;28;20081;-60
2023/02/10 13:53:56;;;;;;;8.80;6.75;;;;;;;;;;4968628;28;20258;-63
2023/02/10 13:56:28;;;;;;;7.83;6.57;;;;;;;;;;4969694;28;20023;-64
2023/02/10 13:58:56;;;;;;;7.57;6.20;;;;;;;;;;4968201;28;20298;-62
2023/02/10 14:01:48;;;;;;;9.05;6.95;;;;;;;;;;4958743;28;20030;-63
2023/02/10 14:04:16;;;;;;;9.30;6.90;;;;;;;;;;4959150;28;20353;-62
2023/02/10 14:06:42;;;;;;;10.38;7.35;;;;;;;;;;4963667;28;20023;-64
2023/02/10 14:09:26;;;;;;;9.13;7.28;;;;;;;;;;4963427;28;20019;-62
2023/02/10 14:11:51;;;;;;;7.82;6.15;;;;;;;;;;4967743;28;20031;-64
2023/02/10 14:14:16;;;;;;;8.23;6.82;;;;;;;;;;4999818;28;20085;-66
2023/02/10 14:16:42;;;;;;;8.70;6.63;;;;;;;;;;4984640;28;20031;-62
2023/02/10 14:19:21;;;;;;;8.60;7.18;;;;;;;;;;4977506;28;20012;-66
2023/02/10 14:21:46;;;;;;;9.05;7.32;;;;;;;;;;4966768;28;20042;-61
2023/02/10 14:24:13;;;;;;;9.52;6.82;;;;;;;;;;4969070;28;20026;-66
2023/02/10 14:26:38;;;;;;;7.80;6.70;;;;;;;;;;4985614;28;20026;-67
2023/02/10 14:29:06;;;;;;;8.70;6.90;;;;;;;;;;4969267;28;20030;-64
2023/02/10 14:31:33;;;;;;;9.90;7.20;;;;;;;;;;4981665;28;20357;-64
2023/02/10 14:33:59;;;;;;;8.93;6.88;;;;;;;;;;4981426;28;20484;-68
2023/02/10 14:36:24;;;;;;;8.52;6.70;;;;;;;;;;4967158;28;20022;-65
2023/02/10 14:38:57;;;;;;;9.13;7.20;;;;;;;;;;4968079;28;20451;-67